Terminal Aerodrome Forecast
Issued by NWS Brownsville, TX

Home | Current Version | Previous Version | Text Only | Print | Product List | Glossary On
Versions: 1 2 3 4 5 6 7 8 9 10 11 12 13 14 15 16 17 18 19 20 21 22 23
000
FTUS44 KBRO 200526
TAFHRL
TAF
KHRL 200526Z 2006/2106 16015KT P6SM BKN014
      TEMPO 2009/2012 VRB15G35KT 4SM TSRA SQ OVC009CB
     FM201200 VRB05KT P6SM VCTS OVC015CB
     FM201400 17008KT P6SM VCSH OVC025
     FM201700 24010KT P6SM BKN050
     FM202000 31012KT P6SM SCT050 BKN100
     FM210000 01005KT P6SM SKC=

USA.gov is the U.S. government's official web portal to all federal, state and local government web resources and services.